Chastang, Alabama
Current Conditions -  °F | °C
As of 10:56 AM on Monday 22 Dec 2014 (Local Time) from KMOB Reporting Station
Haze Haze  
Wind Chill: 64°   Ceiling: 700
Heat Index: 64°   Visibility: 5mi
Dew Point: 61°   Wind: 12mph
Humidity: 90%   Direction: 120°ESE
Pressure: 29.85"   Gusts: NA
Location:  31.0984°N, 88.056°W
Report Text: KMOB 221656Z 12010KT 5SM BR BKN007 BKN050 BKN250 18/16 A2985 RMK AO2 RAE05 SLP105 P0000 T01780161
Loading
Personal Weather Stations






























Interactive Weather Map New forecast layout! Learn more

10-Day Weather Forecast

Advertisements
Track Severe Weather on mobile